Terminal Aerodrome Forecast
Issued by NWS Twin Cities, MN

Home | Current Version | Previous Version | Text Only | Print | Product List | Glossary Off
Versions: 1 2 3 4 5 6 7 8 9 10 11 12 13 14 15 16 17 18 19 20 21 22 23 24

478
FTUS43 KMPX 261429 AAA
TAFMSP
TAF AMD
KMSP 261429Z 2614/2718 35014G18KT P6SM SCT009 BKN012 OVC020
     FM262200 34012KT P6SM OVC015
     FM270200 33008KT P6SM VCSH SCT008 OVC012
     FM270600 33008KT P6SM -SN BKN008 OVC012
     FM271100 32009KT P6SM SCT008 OVC015=

USA.gov is the U.S. government's official web portal to all federal, state and local government web resources and services.